createdAt,value
2023-03-24T00:00:37.834Z,1.30
2023-03-24T00:01:38.138Z,1.60
2023-03-24T00:02:38.530Z,1.20
2023-03-24T00:03:38.902Z,1.40
2023-03-24T00:04:39.252Z,1.60
2023-03-24T00:05:39.387Z,1.30
2023-03-24T00:06:39.715Z,1.20
2023-03-24T00:07:40.183Z,1.20
2023-03-24T00:08:40.307Z,1.20
2023-03-24T00:09:40.670Z,1.30
2023-03-24T00:10:40.955Z,1.20
2023-03-24T00:11:41.282Z,1.10
2023-03-24T00:12:41.582Z,1.00
2023-03-24T00:13:41.915Z,1.10
2023-03-24T00:14:42.255Z,1.20
2023-03-24T00:15:42.579Z,1.60
2023-03-24T00:16:43.073Z,1.10
2023-03-24T00:17:43.135Z,1.20
2023-03-24T00:18:43.446Z,1.30
2023-03-24T00:19:43.788Z,1.20
2023-03-24T00:20:44.340Z,1.50
2023-03-24T00:21:44.403Z,1.20
2023-03-24T00:22:44.716Z,0.90
2023-03-24T00:23:45.028Z,1.10
2023-03-24T00:24:45.376Z,1.20
2023-03-24T00:25:45.703Z,1.20
2023-03-24T00:26:46.016Z,1.20
2023-03-24T00:27:46.332Z,1.00
2023-03-24T00:28:46.658Z,1.20
2023-03-24T00:29:47.024Z,1.10
2023-03-24T00:30:47.477Z,1.20
2023-03-24T00:31:47.615Z,1.20
2023-03-24T00:32:47.949Z,1.30
2023-03-24T00:33:48.252Z,1.20
2023-03-24T00:34:48.622Z,0.90
2023-03-24T00:35:48.918Z,1.50
2023-03-24T00:36:49.223Z,1.10
2023-03-24T00:37:49.538Z,1.60
2023-03-24T00:38:49.875Z,1.30
2023-03-24T00:39:50.214Z,1.80
2023-03-24T00:40:50.547Z,1.60
2023-03-24T00:41:50.816Z,1.50
2023-03-24T00:42:51.127Z,1.80
2023-03-24T00:43:51.449Z,1.20
2023-03-24T00:44:51.809Z,1.50
2023-03-24T00:45:52.095Z,1.70
2023-03-24T00:46:52.439Z,1.80
2023-03-24T00:47:52.751Z,2.00
2023-03-24T00:48:53.058Z,1.80
2023-03-24T00:49:53.450Z,1.70
2023-03-24T00:50:53.688Z,2.00
2023-03-24T00:51:54.034Z,1.90
2023-03-24T00:52:54.349Z,1.90
2023-03-24T00:53:54.645Z,1.70
2023-03-24T00:54:55.009Z,1.70
2023-03-24T00:55:55.486Z,1.60
2023-03-24T00:56:55.610Z,1.70
2023-03-24T00:57:55.955Z,2.10
2023-03-24T00:58:56.240Z,1.60
2023-03-24T00:59:56.620Z,1.80
2023-03-24T01:00:56.987Z,2.00
2023-03-24T01:01:57.269Z,2.20
2023-03-24T01:02:57.614Z,2.10
2023-03-24T01:03:57.906Z,2.10
2023-03-24T01:04:58.231Z,2.00
2023-03-24T01:05:58.503Z,1.90
2023-03-24T01:06:58.878Z,2.10
2023-03-24T01:07:59.164Z,2.00
2023-03-24T01:08:59.535Z,1.70
2023-03-24T01:09:59.836Z,1.70
2023-03-24T01:11:00.150Z,2.00
2023-03-24T01:12:00.434Z,1.70
2023-03-24T01:13:00.758Z,1.60
2023-03-24T01:14:01.078Z,2.20
2023-03-24T01:15:01.424Z,1.80
2023-03-24T01:16:01.746Z,1.50
2023-03-24T01:17:02.026Z,1.60
2023-03-24T01:18:02.455Z,1.80
2023-03-24T01:19:02.630Z,1.60
2023-03-24T01:20:02.981Z,1.70
2023-03-24T01:21:03.249Z,1.90
2023-03-24T01:22:03.565Z,1.60
2023-03-24T01:23:03.890Z,1.50
2023-03-24T01:24:04.205Z,1.70
2023-03-24T01:25:04.562Z,1.80
2023-03-24T01:26:04.816Z,1.70
2023-03-24T01:27:05.156Z,1.70
2023-03-24T01:28:05.466Z,1.60
2023-03-24T01:29:05.786Z,1.80
2023-03-24T01:30:06.135Z,1.60
2023-03-24T01:31:06.443Z,1.70
2023-03-24T01:32:06.848Z,1.80
2023-03-24T01:33:07.118Z,1.80
2023-03-24T01:34:07.390Z,1.30
2023-03-24T01:35:07.820Z,1.60
2023-03-24T01:36:08.073Z,1.60
2023-03-24T01:37:08.328Z,1.80
2023-03-24T01:38:08.665Z,1.70
2023-03-24T01:39:08.956Z,1.60
2023-03-24T01:40:09.317Z,1.70
2023-03-24T01:41:09.604Z,1.70
2023-03-24T01:42:09.934Z,1.70
2023-03-24T01:43:10.232Z,1.70
2023-03-24T01:44:10.549Z,1.60
2023-03-24T01:45:10.879Z,2.00
2023-03-24T01:46:11.195Z,2.10
2023-03-24T01:47:11.492Z,1.90
2023-03-24T01:48:11.878Z,2.20
2023-03-24T01:49:12.038Z,2.00
2023-03-24T01:50:12.389Z,2.00
2023-03-24T01:51:12.678Z,2.10
2023-03-24T01:52:12.991Z,1.90
2023-03-24T01:53:13.321Z,2.10
2023-03-24T01:54:13.648Z,2.20
2023-03-24T01:55:13.971Z,1.90
2023-03-24T01:56:14.256Z,1.70
2023-03-24T01:57:14.574Z,1.80
2023-03-24T01:58:14.893Z,2.20
2023-03-24T01:59:15.233Z,1.60
2023-03-24T02:00:15.562Z,1.80
2023-03-24T02:01:15.928Z,2.10
2023-03-24T02:02:16.111Z,1.90
2023-03-24T02:03:16.376Z,1.70
2023-03-24T02:04:16.729Z,1.70
2023-03-24T02:05:17.056Z,1.70
2023-03-24T02:06:17.330Z,1.90
2023-03-24T02:07:17.639Z,1.90
2023-03-24T02:08:17.939Z,1.90
2023-03-24T02:09:18.250Z,1.80
2023-03-24T02:10:18.581Z,1.90
2023-03-24T02:11:18.905Z,1.80
2023-03-24T02:12:19.205Z,1.80
2023-03-24T02:13:19.523Z,1.80
2023-03-24T02:14:19.851Z,2.00
2023-03-24T02:15:20.180Z,1.80
2023-03-24T02:16:20.528Z,2.10
2023-03-24T02:17:20.805Z,1.80
2023-03-24T02:18:21.163Z,1.70
2023-03-24T02:19:23.004Z,1.90
2023-03-24T02:20:21.730Z,1.80
2023-03-24T02:21:22.034Z,1.60
2023-03-24T02:22:22.340Z,1.70
2023-03-24T02:23:22.652Z,1.40
2023-03-24T02:24:22.996Z,1.60
2023-03-24T02:25:23.338Z,1.60
2023-03-24T02:26:23.606Z,2.10
2023-03-24T02:27:23.922Z,1.50
2023-03-24T02:28:24.234Z,1.60
2023-03-24T02:29:24.565Z,1.60
2023-03-24T02:30:24.913Z,2.00
2023-03-24T02:31:25.212Z,1.50
2023-03-24T02:32:25.515Z,1.70
2023-03-24T02:33:25.811Z,1.50
2023-03-24T02:34:26.169Z,1.70
2023-03-24T02:35:26.447Z,1.80
2023-03-24T02:36:26.726Z,2.00
2023-03-24T02:37:27.024Z,1.60
2023-03-24T02:38:27.345Z,1.50
2023-03-24T02:39:27.673Z,1.70
2023-03-24T02:40:28.003Z,1.70
2023-03-24T02:41:28.305Z,1.20
2023-03-24T02:42:28.623Z,1.40
2023-03-24T02:43:28.948Z,1.50
2023-03-24T02:44:29.271Z,1.70
2023-03-24T02:45:29.641Z,1.30
2023-03-24T02:46:29.890Z,1.30
2023-03-24T02:47:30.220Z,1.50
2023-03-24T02:48:30.531Z,1.30
2023-03-24T02:49:30.840Z,1.30
2023-03-24T02:50:31.165Z,1.20
2023-03-24T02:51:31.456Z,1.10
2023-03-24T02:52:31.741Z,1.10
2023-03-24T02:53:32.104Z,1.10
2023-03-24T02:54:32.423Z,1.10
2023-03-24T02:55:32.741Z,1.20
2023-03-24T02:56:33.065Z,1.10
2023-03-24T02:57:33.409Z,1.40
2023-03-24T02:58:33.668Z,1.40
2023-03-24T02:59:33.988Z,1.50
2023-03-24T03:00:34.347Z,1.40
2023-03-24T03:01:34.720Z,1.40
2023-03-24T03:02:34.981Z,1.50
2023-03-24T03:03:35.292Z,1.40
2023-03-24T03:04:35.638Z,1.50
2023-03-24T03:05:35.969Z,1.50
2023-03-24T03:06:36.223Z,1.50
2023-03-24T03:07:36.559Z,1.40
2023-03-24T03:08:36.823Z,1.60
2023-03-24T03:09:37.151Z,1.50
2023-03-24T03:10:37.478Z,1.40
2023-03-24T03:11:37.734Z,1.40
2023-03-24T03:12:38.080Z,1.50
2023-03-24T03:13:38.411Z,1.30
2023-03-24T03:14:38.678Z,1.40
2023-03-24T03:15:39.007Z,1.70
2023-03-24T03:16:39.328Z,1.60
2023-03-24T03:17:39.669Z,1.80
2023-03-24T03:18:39.963Z,1.30
2023-03-24T03:19:40.321Z,1.60
2023-03-24T03:20:40.595Z,1.40
2023-03-24T03:21:40.881Z,1.10
2023-03-24T03:22:41.187Z,1.30
2023-03-24T03:23:41.518Z,1.10
2023-03-24T03:24:41.821Z,1.50
2023-03-24T03:25:42.156Z,1.20
2023-03-24T03:26:42.415Z,1.80
2023-03-24T03:27:42.735Z,1.30
2023-03-24T03:28:43.045Z,1.30
2023-03-24T03:29:43.349Z,1.60
2023-03-24T03:30:43.926Z,1.40
2023-03-24T03:31:43.997Z,1.40
2023-03-24T03:32:44.321Z,1.70
2023-03-24T03:33:44.624Z,1.30
2023-03-24T03:34:44.961Z,1.30
2023-03-24T03:35:45.457Z,1.40
2023-03-24T03:36:45.516Z,1.60
2023-03-24T03:37:47.258Z,1.40
2023-03-24T03:38:46.091Z,1.80
2023-03-24T03:39:46.408Z,1.30
2023-03-24T03:40:46.746Z,1.50
2023-03-24T03:41:47.055Z,1.50
2023-03-24T03:42:47.378Z,1.50
2023-03-24T03:43:47.684Z,1.50
2023-03-24T03:44:48.008Z,1.40
2023-03-24T03:45:48.421Z,1.30
2023-03-24T03:46:48.673Z,2.00
2023-03-24T03:47:49.047Z,1.40
2023-03-24T03:48:49.292Z,1.30
2023-03-24T03:49:49.619Z,1.20
2023-03-24T03:50:57.328Z,1.00
2023-03-24T03:51:51.233Z,1.20
2023-03-24T03:52:50.445Z,1.40
2023-03-24T03:53:50.787Z,1.20
2023-03-24T03:54:51.098Z,1.20
2023-03-24T03:55:51.443Z,1.50
2023-03-24T03:56:51.886Z,1.40
2023-03-24T03:57:52.039Z,1.30
2023-03-24T03:58:52.357Z,1.10
2023-03-24T03:59:52.698Z,1.20
2023-03-24T04:00:53.028Z,1.20
2023-03-24T04:01:53.336Z,1.10
2023-03-24T04:02:53.696Z,1.30
2023-03-24T04:03:54.008Z,1.30
2023-03-24T04:05:03.602Z,1.30
2023-03-24T04:05:55.546Z,1.10
2023-03-24T04:06:54.878Z,1.20
2023-03-24T04:07:55.204Z,1.20
2023-03-24T04:08:55.501Z,1.30
2023-03-24T04:09:55.822Z,1.40
2023-03-24T04:10:56.141Z,1.20
2023-03-24T04:11:56.492Z,1.00
2023-03-24T04:12:56.772Z,1.20
2023-03-24T04:13:57.102Z,1.20
2023-03-24T04:14:57.449Z,1.10
2023-03-24T04:15:57.897Z,1.00
2023-03-24T04:16:58.050Z,1.10
2023-03-24T04:17:58.409Z,1.20
2023-03-24T04:18:58.728Z,1.00
2023-03-24T04:19:59.019Z,1.10
2023-03-24T04:20:59.357Z,1.10
2023-03-24T04:21:59.688Z,1.20
2023-03-24T04:22:59.990Z,1.00
2023-03-24T04:24:00.333Z,0.70
2023-03-24T04:25:00.640Z,1.10
2023-03-24T04:26:00.936Z,1.10
2023-03-24T04:27:01.311Z,1.10
2023-03-24T04:28:01.510Z,0.90
2023-03-24T04:29:01.805Z,0.90
2023-03-24T04:30:02.098Z,1.10
2023-03-24T04:31:02.472Z,1.00
2023-03-24T04:32:02.757Z,0.90
2023-03-24T04:33:03.073Z,0.70
2023-03-24T04:34:03.632Z,1.00
2023-03-24T04:35:03.609Z,1.00
2023-03-24T04:36:04.089Z,1.00
2023-03-24T04:37:04.351Z,1.00
2023-03-24T04:38:04.611Z,1.00
2023-03-24T04:39:04.881Z,1.00
2023-03-24T04:40:05.215Z,0.80
2023-03-24T04:41:05.581Z,0.90
2023-03-24T04:42:05.740Z,0.90
2023-03-24T04:43:06.048Z,0.90
2023-03-24T04:44:06.377Z,0.80
2023-03-24T04:45:06.661Z,0.90
2023-03-24T04:46:07.126Z,0.80
2023-03-24T04:47:07.283Z,0.70
2023-03-24T04:48:07.581Z,1.00
2023-03-24T04:49:07.948Z,1.10
2023-03-24T04:50:08.240Z,0.90
2023-03-24T04:51:08.605Z,1.00
2023-03-24T04:52:08.886Z,0.70
2023-03-24T04:53:09.213Z,0.80
2023-03-24T04:54:09.553Z,0.80
2023-03-24T04:55:09.853Z,1.00
2023-03-24T04:56:10.180Z,1.20
2023-03-24T04:57:10.536Z,0.90
2023-03-24T04:58:10.833Z,0.90
2023-03-24T04:59:11.166Z,1.10
2023-03-24T05:00:11.504Z,1.10
2023-03-24T05:01:11.863Z,0.80
2023-03-24T05:02:12.176Z,0.90
2023-03-24T05:03:12.473Z,1.80
2023-03-24T05:04:12.835Z,0.80
2023-03-24T05:05:13.140Z,1.00
2023-03-24T05:06:13.494Z,1.00
2023-03-24T05:07:13.829Z,1.20
2023-03-24T05:08:14.147Z,0.90
2023-03-24T05:09:14.483Z,0.90
2023-03-24T05:10:14.804Z,0.90
2023-03-24T05:11:15.132Z,0.80
2023-03-24T05:12:16.957Z,0.90
2023-03-24T05:13:15.749Z,0.90
2023-03-24T05:14:16.073Z,1.00
2023-03-24T05:15:16.511Z,0.80
2023-03-24T05:16:16.901Z,0.90
2023-03-24T05:17:17.046Z,0.90
2023-03-24T05:18:17.422Z,1.00
2023-03-24T05:19:17.614Z,1.00
2023-03-24T05:20:17.939Z,0.90
2023-03-24T05:21:18.297Z,1.10
2023-03-24T05:22:18.613Z,1.00
2023-03-24T05:23:18.950Z,1.10
2023-03-24T05:24:19.275Z,0.90
2023-03-24T05:25:19.646Z,1.00
2023-03-24T05:26:19.918Z,1.20
2023-03-24T05:27:20.239Z,0.90
2023-03-24T05:28:20.558Z,1.00
2023-03-24T05:29:20.815Z,0.90
2023-03-24T05:30:21.130Z,1.30
2023-03-24T05:31:21.422Z,1.20
2023-03-24T05:32:21.701Z,1.30
2023-03-24T05:33:22.037Z,1.00
2023-03-24T05:34:22.410Z,1.30
2023-03-24T05:35:22.607Z,1.20
2023-03-24T05:36:22.997Z,1.00
2023-03-24T05:37:23.164Z,0.90
2023-03-24T05:38:23.443Z,1.20
2023-03-24T05:39:23.777Z,1.20
2023-03-24T05:40:24.153Z,1.30
2023-03-24T05:41:34.739Z,1.00
2023-03-24T05:42:24.804Z,1.00
2023-03-24T05:43:25.178Z,1.50
2023-03-24T05:44:25.303Z,1.20
2023-03-24T05:45:25.641Z,0.90
2023-03-24T05:46:26.690Z,1.20
2023-03-24T05:47:26.188Z,1.10
2023-03-24T05:48:26.453Z,1.20
2023-03-24T05:49:26.702Z,1.00
2023-03-24T05:50:27.098Z,1.00
2023-03-24T05:51:27.219Z,1.20
2023-03-24T05:52:28.947Z,1.20
2023-03-24T05:53:27.775Z,1.20
2023-03-24T05:54:28.068Z,1.60
2023-03-24T05:55:28.313Z,1.10
2023-03-24T05:56:28.580Z,1.00
2023-03-24T05:57:28.814Z,1.30
2023-03-24T05:58:29.034Z,1.50
2023-03-24T05:59:29.344Z,1.20
2023-03-24T06:00:29.598Z,1.30
2023-03-24T06:01:29.847Z,1.30
2023-03-24T06:02:30.299Z,1.30
2023-03-24T06:03:30.684Z,1.20
2023-03-24T06:04:30.785Z,1.30
2023-03-24T06:05:31.021Z,1.20
2023-03-24T06:06:31.250Z,1.80
2023-03-24T06:07:31.566Z,1.70
2023-03-24T06:08:31.861Z,1.40
2023-03-24T06:09:32.160Z,1.70
2023-03-24T06:10:33.639Z,1.80
2023-03-24T06:11:32.777Z,1.60
2023-03-24T06:12:32.965Z,1.60
2023-03-24T06:13:33.423Z,1.40
2023-03-24T06:14:33.531Z,1.30
2023-03-24T06:15:33.977Z,1.40
2023-03-24T06:16:34.184Z,1.50
2023-03-24T06:17:34.326Z,1.30
2023-03-24T06:18:34.967Z,1.40
2023-03-24T06:19:34.840Z,1.50
2023-03-24T06:20:35.293Z,1.40
2023-03-24T06:21:35.561Z,1.40
2023-03-24T06:22:35.790Z,1.50
2023-03-24T06:23:36.176Z,1.30
2023-03-24T06:24:36.448Z,1.30
2023-03-24T06:25:36.751Z,1.50
2023-03-24T06:26:37.063Z,1.60
2023-03-24T06:27:39.376Z,1.50
2023-03-24T06:28:37.676Z,1.50
2023-03-24T06:29:37.916Z,1.30
2023-03-24T06:30:38.323Z,1.50
2023-03-24T06:31:38.487Z,1.70
2023-03-24T06:32:38.996Z,1.40
2023-03-24T06:33:39.173Z,1.40
2023-03-24T06:34:39.249Z,1.40
2023-03-24T06:35:39.563Z,1.80
2023-03-24T06:36:39.868Z,1.70
2023-03-24T06:37:40.100Z,1.70
2023-03-24T06:38:40.440Z,1.90
2023-03-24T06:39:40.682Z,2.10
2023-03-24T06:40:40.931Z,1.60
2023-03-24T06:41:41.242Z,1.50
2023-03-24T06:42:41.546Z,1.70
2023-03-24T06:43:41.860Z,1.30
2023-03-24T06:44:42.111Z,1.40
2023-03-24T06:45:42.680Z,1.30
2023-03-24T06:46:42.708Z,1.50
2023-03-24T06:47:43.011Z,1.30
2023-03-24T06:48:43.294Z,1.50
2023-03-24T06:49:43.539Z,1.40
2023-03-24T06:50:44.063Z,1.40
2023-03-24T06:51:44.199Z,1.30
2023-03-24T06:52:44.420Z,1.30
2023-03-24T06:53:44.824Z,1.80
2023-03-24T06:54:45.069Z,1.70
2023-03-24T06:55:45.460Z,1.50
2023-03-24T06:56:45.742Z,1.70
2023-03-24T06:57:45.876Z,1.60
2023-03-24T06:58:46.108Z,1.50
2023-03-24T06:59:46.519Z,1.50
2023-03-24T07:00:47.085Z,1.40
2023-03-24T07:01:47.116Z,1.40
2023-03-24T07:02:47.321Z,1.50
2023-03-24T07:03:47.693Z,1.40
2023-03-24T07:04:47.896Z,1.00
2023-03-24T07:05:48.129Z,1.50
2023-03-24T07:07:01.326Z,1.40
2023-03-24T07:08:48.876Z,1.50
2023-03-24T07:09:49.282Z,1.70
2023-03-24T07:10:49.540Z,1.50
2023-03-24T07:11:49.782Z,1.30
2023-03-24T07:12:50.009Z,1.40
2023-03-24T07:13:50.251Z,2.00
2023-03-24T07:14:50.626Z,1.40
2023-03-24T07:15:50.988Z,1.10
2023-03-24T07:16:51.224Z,1.60
2023-03-24T07:17:51.777Z,1.50
2023-03-24T07:18:51.870Z,1.30
2023-03-24T07:19:52.234Z,1.40
2023-03-24T07:20:54.042Z,1.60
2023-03-24T07:21:52.652Z,1.60
2023-03-24T07:22:53.013Z,1.40
2023-03-24T07:23:53.370Z,1.60
2023-03-24T07:24:54.300Z,1.40
2023-03-24T07:25:54.026Z,1.20
2023-03-24T07:26:54.166Z,1.20
2023-03-24T07:27:58.267Z,1.40
2023-03-24T07:28:54.784Z,1.70
2023-03-24T07:29:54.973Z,1.40
2023-03-24T07:30:55.749Z,1.40
2023-03-24T07:31:55.542Z,1.30
2023-03-24T07:33:02.662Z,1.30
2023-03-24T07:33:59.780Z,1.50
2023-03-24T07:34:57.359Z,1.50
2023-03-24T07:35:58.715Z,1.50
2023-03-24T07:36:56.918Z,1.30
2023-03-24T07:37:57.147Z,2.00
2023-03-24T07:38:57.540Z,2.80
2023-03-24T07:39:57.778Z,1.50
2023-03-24T07:40:58.017Z,1.80
2023-03-24T07:41:58.431Z,2.00
2023-03-24T07:42:58.586Z,2.80
2023-03-24T07:43:58.954Z,3.80
2023-03-24T07:44:59.022Z,3.30
2023-03-24T07:45:59.942Z,2.60
2023-03-24T07:46:59.543Z,2.10
2023-03-24T07:47:59.995Z,2.00
2023-03-24T07:49:12.209Z,1.70
2023-03-24T07:50:01.417Z,1.70
2023-03-24T07:51:00.745Z,1.60
2023-03-24T07:52:01.007Z,1.50
2023-03-24T07:53:01.283Z,1.40
2023-03-24T07:54:01.677Z,1.60
2023-03-24T07:55:01.787Z,1.30
2023-03-24T07:56:02.214Z,1.40
2023-03-24T07:57:02.478Z,1.30
2023-03-24T07:58:02.652Z,1.10
2023-03-24T07:59:02.956Z,1.50
2023-03-24T08:00:03.152Z,1.30
2023-03-24T08:01:03.449Z,1.50
2023-03-24T08:02:03.826Z,1.30
2023-03-24T08:03:04.107Z,1.10
2023-03-24T08:04:04.352Z,1.60
2023-03-24T08:05:04.579Z,1.20
2023-03-24T08:06:04.837Z,1.20
2023-03-24T08:07:05.088Z,1.20
2023-03-24T08:08:05.362Z,1.10
2023-03-24T08:09:05.858Z,1.50
2023-03-24T08:10:05.939Z,1.50
2023-03-24T08:11:06.153Z,1.20
2023-03-24T08:12:17.341Z,1.40
2023-03-24T08:13:07.789Z,1.10
2023-03-24T08:14:07.074Z,1.10
2023-03-24T08:15:07.404Z,1.20
2023-03-24T08:16:07.736Z,1.30
2023-03-24T08:17:07.955Z,1.20
2023-03-24T08:18:08.253Z,1.40
2023-03-24T08:19:08.492Z,1.30
2023-03-24T08:20:08.718Z,1.10
2023-03-24T08:21:09.101Z,1.50
2023-03-24T08:22:09.383Z,1.50
2023-03-24T08:23:09.602Z,1.10
2023-03-24T08:24:09.930Z,1.30
2023-03-24T08:25:11.265Z,1.10
2023-03-24T08:26:10.607Z,1.20
2023-03-24T08:27:10.925Z,1.10
2023-03-24T08:28:11.149Z,1.20
2023-03-24T08:29:11.376Z,1.10
2023-03-24T08:30:11.739Z,1.30
2023-03-24T08:31:12.027Z,1.50
2023-03-24T08:32:12.253Z,1.40
2023-03-24T08:33:12.679Z,1.40
2023-03-24T08:34:12.745Z,1.20
2023-03-24T08:35:12.978Z,1.30
2023-03-24T08:36:13.412Z,1.20
2023-03-24T08:37:13.608Z,1.30
2023-03-24T08:38:13.846Z,1.30
2023-03-24T08:39:14.174Z,1.50
2023-03-24T08:40:14.524Z,1.30
2023-03-24T08:41:14.738Z,1.40
2023-03-24T08:42:15.029Z,1.50
2023-03-24T08:43:15.286Z,1.20
2023-03-24T08:44:15.630Z,1.00
2023-03-24T08:45:15.830Z,1.40
2023-03-24T08:46:16.245Z,1.40
2023-03-24T08:47:16.447Z,1.20
2023-03-24T08:48:16.727Z,1.50
2023-03-24T08:49:16.992Z,1.50
2023-03-24T08:50:17.211Z,1.40
2023-03-24T08:51:17.610Z,1.30
2023-03-24T08:52:17.825Z,1.40
2023-03-24T08:53:18.245Z,1.30
2023-03-24T08:54:18.458Z,1.30
2023-03-24T08:55:18.839Z,1.40
2023-03-24T08:56:19.069Z,1.80
2023-03-24T08:57:19.388Z,1.30
2023-03-24T08:58:19.738Z,1.20
2023-03-24T08:59:20.101Z,1.30
2023-03-24T09:00:20.385Z,1.20
2023-03-24T09:01:20.688Z,1.50
2023-03-24T09:02:20.895Z,1.30
2023-03-24T09:03:21.123Z,1.40
2023-03-24T09:04:21.500Z,1.60
2023-03-24T09:05:33.287Z,1.40
2023-03-24T09:06:23.140Z,1.40
2023-03-24T09:07:22.340Z,1.40
2023-03-24T09:08:22.605Z,1.50
2023-03-24T09:09:22.840Z,1.50
2023-03-24T09:10:23.226Z,1.60
2023-03-24T09:11:23.451Z,1.50
2023-03-24T09:12:23.708Z,1.70
2023-03-24T09:13:23.935Z,1.50
2023-03-24T09:14:24.188Z,1.60
2023-03-24T09:15:24.515Z,1.50
2023-03-24T09:16:24.890Z,1.70
2023-03-24T09:17:25.164Z,1.40
2023-03-24T09:18:25.405Z,1.70
2023-03-24T09:19:25.696Z,1.30
2023-03-24T09:20:25.949Z,1.40
2023-03-24T09:21:26.151Z,1.40
2023-03-24T09:22:26.589Z,1.80
2023-03-24T09:23:26.825Z,1.40
2023-03-24T09:24:27.164Z,1.70
2023-03-24T09:25:27.400Z,1.90
2023-03-24T09:26:27.737Z,1.70
2023-03-24T09:27:28.021Z,1.80
2023-03-24T09:28:28.240Z,1.80
2023-03-24T09:29:28.449Z,1.70
2023-03-24T09:30:30.548Z,1.80
2023-03-24T09:31:29.059Z,2.30
2023-03-24T09:32:29.393Z,1.60
2023-03-24T09:33:29.586Z,1.40
2023-03-24T09:34:29.838Z,1.50
2023-03-24T09:35:30.136Z,1.70
2023-03-24T09:36:31.225Z,1.60
2023-03-24T09:37:30.705Z,1.80
2023-03-24T09:38:30.977Z,1.50
2023-03-24T09:39:31.192Z,1.60
2023-03-24T09:40:31.458Z,1.70
2023-03-24T09:41:34.273Z,1.30
2023-03-24T09:42:32.031Z,1.50
2023-03-24T09:43:32.416Z,1.70
2023-03-24T09:44:32.515Z,1.60
2023-03-24T09:45:32.805Z,1.20
2023-03-24T09:46:32.992Z,1.30
2023-03-24T09:47:33.399Z,1.50
2023-03-24T09:48:33.609Z,1.30
2023-03-24T09:49:33.825Z,1.70
2023-03-24T09:50:34.212Z,1.50
2023-03-24T09:51:34.474Z,1.50
2023-03-24T09:52:34.728Z,1.60
2023-03-24T09:53:35.012Z,1.30
2023-03-24T09:54:35.239Z,1.20
2023-03-24T09:55:35.594Z,1.30
2023-03-24T09:56:35.973Z,1.30
2023-03-24T09:57:37.050Z,1.30
2023-03-24T09:58:36.525Z,1.30
2023-03-24T09:59:36.799Z,1.50
2023-03-24T10:00:37.086Z,1.50
2023-03-24T10:01:37.293Z,1.40
2023-03-24T10:02:37.594Z,1.30
2023-03-24T10:03:37.901Z,1.30
2023-03-24T10:04:38.127Z,1.30
2023-03-24T10:05:39.302Z,1.50
2023-03-24T10:06:38.642Z,1.10
2023-03-24T10:07:38.859Z,1.60
2023-03-24T10:08:39.103Z,1.40
2023-03-24T10:09:39.373Z,1.40
2023-03-24T10:10:39.581Z,1.20
2023-03-24T10:11:39.824Z,1.40
2023-03-24T10:12:40.057Z,1.50
2023-03-24T10:13:40.316Z,1.70
2023-03-24T10:14:40.583Z,1.30
2023-03-24T10:15:40.806Z,1.10
2023-03-24T10:16:41.056Z,1.70
2023-03-24T10:17:41.420Z,1.50
2023-03-24T10:18:41.607Z,1.40
2023-03-24T10:19:41.830Z,1.40
2023-03-24T10:20:42.099Z,1.40
2023-03-24T10:21:42.372Z,1.40
2023-03-24T10:22:42.790Z,1.40
2023-03-24T10:23:42.930Z,1.20
2023-03-24T10:24:43.169Z,1.30
2023-03-24T10:25:43.543Z,1.50
2023-03-24T10:26:43.807Z,1.50
2023-03-24T10:27:44.046Z,1.50
2023-03-24T10:28:44.306Z,1.20
2023-03-24T10:29:44.537Z,1.10
2023-03-24T10:30:46.234Z,1.20
2023-03-24T10:31:45.088Z,1.60
2023-03-24T10:32:45.344Z,1.30
2023-03-24T10:33:45.621Z,1.30
2023-03-24T10:34:45.837Z,1.40
2023-03-24T10:35:46.257Z,1.20
2023-03-24T10:36:46.344Z,1.20
2023-03-24T10:37:46.604Z,1.30
2023-03-24T10:38:46.941Z,1.30
2023-03-24T10:39:47.142Z,1.10
2023-03-24T10:40:47.398Z,1.10
2023-03-24T10:41:47.627Z,1.00
2023-03-24T10:42:47.995Z,1.00
2023-03-24T10:43:48.231Z,1.10
2023-03-24T10:44:48.592Z,1.30
2023-03-24T10:45:49.012Z,1.30
2023-03-24T10:46:49.049Z,1.10
2023-03-24T10:47:49.334Z,1.10
2023-03-24T10:48:49.566Z,0.90
2023-03-24T10:49:50.788Z,0.80
2023-03-24T10:50:50.074Z,1.10
2023-03-24T10:51:50.428Z,1.00
2023-03-24T10:52:50.678Z,1.00
2023-03-24T10:53:51.039Z,0.90
2023-03-24T10:54:51.296Z,1.10
2023-03-24T10:55:52.555Z,0.90
2023-03-24T10:56:51.955Z,0.90
2023-03-24T10:57:52.164Z,0.90
2023-03-24T10:58:52.376Z,1.00
2023-03-24T10:59:52.639Z,0.80
2023-03-24T11:00:52.890Z,0.70
2023-03-24T11:01:53.245Z,0.70
2023-03-24T11:02:53.501Z,0.70
2023-03-24T11:03:53.718Z,0.50
2023-03-24T11:04:54.035Z,0.90
2023-03-24T11:05:54.289Z,0.60
2023-03-24T11:06:54.565Z,0.80
2023-03-24T11:07:54.802Z,0.70
2023-03-24T11:08:56.091Z,0.70
2023-03-24T11:09:55.358Z,0.60
2023-03-24T11:10:55.714Z,0.50
2023-03-24T11:11:56.146Z,0.70
2023-03-24T11:12:56.468Z,0.60
2023-03-24T11:13:56.697Z,0.40
2023-03-24T11:14:56.884Z,0.40
2023-03-24T11:15:57.142Z,0.50
2023-03-24T11:16:57.414Z,0.40
2023-03-24T11:17:57.746Z,0.50
2023-03-24T11:18:57.988Z,0.60
2023-03-24T11:19:58.209Z,0.60
2023-03-24T11:20:58.565Z,0.60
2023-03-24T11:21:58.935Z,0.60
2023-03-24T11:22:59.203Z,0.50
2023-03-24T11:23:59.407Z,0.50
2023-03-24T11:25:00.451Z,0.50
2023-03-24T11:25:59.987Z,0.50
2023-03-24T11:27:00.271Z,0.50
2023-03-24T11:28:01.039Z,0.50
2023-03-24T11:29:00.839Z,0.50
2023-03-24T11:30:01.067Z,0.60
2023-03-24T11:31:01.354Z,0.80
2023-03-24T11:32:01.703Z,0.50
2023-03-24T11:33:02.052Z,0.50
2023-03-24T11:34:02.237Z,0.50
2023-03-24T11:35:02.610Z,0.50
2023-03-24T11:36:06.027Z,0.50
2023-03-24T11:37:03.265Z,0.40
2023-03-24T11:38:03.491Z,0.30
2023-03-24T11:39:03.759Z,0.50
2023-03-24T11:40:04.002Z,0.60
2023-03-24T11:41:04.211Z,0.50
2023-03-24T11:42:04.597Z,0.50
2023-03-24T11:43:04.856Z,0.40
2023-03-24T11:44:05.083Z,0.50
2023-03-24T11:45:05.429Z,0.30
2023-03-24T11:46:06.458Z,0.40
2023-03-24T11:47:05.994Z,0.30
2023-03-24T11:48:07.001Z,0.50
2023-03-24T11:49:06.476Z,0.40
2023-03-24T11:50:06.841Z,0.30
2023-03-24T11:51:07.096Z,0.60
2023-03-24T11:52:07.299Z,0.30
2023-03-24T11:53:07.670Z,0.50
2023-03-24T11:54:08.892Z,0.30
2023-03-24T11:55:08.185Z,0.40
2023-03-24T11:56:08.528Z,0.30
2023-03-24T11:57:08.823Z,0.30
2023-03-24T11:58:09.083Z,0.20
2023-03-24T11:59:09.294Z,0.40
2023-03-24T12:00:09.660Z,0.20
2023-03-24T12:01:09.903Z,0.50
2023-03-24T12:02:10.220Z,0.30
2023-03-24T12:03:10.724Z,0.30
2023-03-24T12:04:10.937Z,0.60
2023-03-24T12:05:11.243Z,0.40
2023-03-24T12:06:11.503Z,0.20
2023-03-24T12:07:11.863Z,0.30
2023-03-24T12:08:12.110Z,0.40
2023-03-24T12:09:12.358Z,0.30
2023-03-24T12:10:12.677Z,0.20
2023-03-24T12:11:13.023Z,0.20
2023-03-24T12:12:13.397Z,0.20
2023-03-24T12:13:29.545Z,0.30
2023-03-24T12:14:14.994Z,0.30
2023-03-24T12:15:27.450Z,0.30
2023-03-24T12:16:15.635Z,0.20
2023-03-24T12:17:14.889Z,0.30
2023-03-24T12:18:15.284Z,0.40
2023-03-24T12:19:15.520Z,0.30
2023-03-24T12:20:15.805Z,0.30
2023-03-24T12:21:16.020Z,0.20
2023-03-24T12:22:16.301Z,0.20
2023-03-24T12:23:16.514Z,0.30
2023-03-24T12:24:16.732Z,0.30
2023-03-24T12:25:17.078Z,0.30
2023-03-24T12:26:18.237Z,0.30
2023-03-24T12:27:17.936Z,0.50
2023-03-24T12:28:20.305Z,0.40
2023-03-24T12:29:18.374Z,0.40
2023-03-24T12:30:18.566Z,0.30
2023-03-24T12:31:18.938Z,0.40
2023-03-24T12:32:19.254Z,0.30
2023-03-24T12:33:19.556Z,0.20
2023-03-24T12:34:19.741Z,0.20
2023-03-24T12:35:20.143Z,0.60
2023-03-24T12:36:20.323Z,0.20
2023-03-24T12:37:20.661Z,0.20
2023-03-24T12:38:20.952Z,0.40
2023-03-24T12:39:21.157Z,0.20
2023-03-24T12:40:21.551Z,0.20
2023-03-24T12:41:23.131Z,0.20
2023-03-24T12:42:21.995Z,0.40
2023-03-24T12:43:22.228Z,0.30
2023-03-24T12:44:22.577Z,0.40
2023-03-24T12:45:22.830Z,0.10
2023-03-24T12:46:23.084Z,0.20
2023-03-24T12:47:23.362Z,0.20
2023-03-24T12:48:23.626Z,0.30
2023-03-24T12:49:23.921Z,0.20
2023-03-24T12:50:24.153Z,0.10
2023-03-24T12:51:24.411Z,0.30
2023-03-24T12:52:24.635Z,0.30
2023-03-24T12:53:24.885Z,0.10
2023-03-24T12:54:25.103Z,0.20
2023-03-24T12:55:25.345Z,0.60
2023-03-24T12:56:25.589Z,0.30
2023-03-24T12:57:25.841Z,0.30
2023-03-24T12:58:26.168Z,0.20
2023-03-24T12:59:26.388Z,0.20
2023-03-24T13:00:26.749Z,0.20
2023-03-24T13:01:27.095Z,0.30
2023-03-24T13:02:27.523Z,0.20
2023-03-24T13:03:27.776Z,0.20
2023-03-24T13:04:27.999Z,0.10
2023-03-24T13:05:28.213Z,0.30
2023-03-24T13:06:28.461Z,0.20
2023-03-24T13:07:28.842Z,0.40
2023-03-24T13:08:29.264Z,0.30
2023-03-24T13:09:29.442Z,0.10
2023-03-24T13:10:29.794Z,0.20
2023-03-24T13:11:33.187Z,0.30
2023-03-24T13:12:30.489Z,0.20
2023-03-24T13:13:30.704Z,0.30
2023-03-24T13:14:30.955Z,0.20
2023-03-24T13:15:31.185Z,0.20
2023-03-24T13:16:31.495Z,0.10
2023-03-24T13:17:31.739Z,0.30
2023-03-24T13:18:32.066Z,0.20
2023-03-24T13:19:32.182Z,0.30
2023-03-24T13:20:32.385Z,0.30
2023-03-24T13:21:32.645Z,0.40
2023-03-24T13:22:32.879Z,0.40
2023-03-24T13:23:33.111Z,0.20